Time;durP1;ratioP1;P1;durP2;ratioP2;P2;SDS_P1;SDS_P2;PMS_P1;PMS_P2;Temp;Humidity;BMP_temperature;BMP_pressure;BME280_temperature;BME280_humidity;BME280_pressure;Samples;Min_cycle;Max_cycle;Signal;HPM_P1;HPM_P2
2024/03/21 00:02:02;;;;;;;;;;;;;;;;;;5010345;28;20013;-58
2024/03/21 00:04:28;;;;;;;;;;;;;;;;;;5011019;28;19909;-57
2024/03/21 00:06:54;;;;;;;;;;;;;;;;;;5015877;28;20808;-59
2024/03/21 00:09:20;;;;;;;;;;;;;;;;;;5015917;28;19921;-58
2024/03/21 00:11:46;;;;;;;;;;;;;;;;;;5008871;28;19913;-58
2024/03/21 00:14:13;;;;;;;;;;;;;;;;;;5011783;28;20395;-58
2024/03/21 00:16:39;;;;;;;;;;;;;;;;;;5015775;28;19919;-57
2024/03/21 00:19:05;;;;;;;;;;;;;;;;;;5012992;28;20011;-58
2024/03/21 00:21:31;;;;;;;;;;;;;;;;;;5016798;28;19913;-57
2024/03/21 00:23:57;;;;;;;;;;;;;;;;;;5011891;28;19913;-58
2024/03/21 00:26:23;;;;;;;;;;;;;;;;;;5012296;28;20008;-59
2024/03/21 00:28:49;;;;;;;;;;;;;;;;;;5012096;28;19929;-58
2024/03/21 00:31:16;;;;;;;;;;;;;;;;;;5015592;28;19932;-57
2024/03/21 00:33:47;;;;;;;;;;;;;;;;;;5013262;28;19952;-58
2024/03/21 00:36:13;;;;;;;;;;;;;;;;;;5012497;28;19957;-57
2024/03/21 00:38:39;;;;;;;;;;;;;;;;;;5013827;28;20423;-58
2024/03/21 00:41:05;;;;;;;;;;;;;;;;;;5010446;28;19933;-58
2024/03/21 00:43:31;;;;;;;;;;;;;;;;;;5011869;28;19913;-58
2024/03/21 00:45:57;;;;;;;;;;;;;;;;;;5013720;28;19913;-58
2024/03/21 00:48:23;;;;;;;;;;;;;;;;;;5010696;28;20012;-58
2024/03/21 00:50:49;;;;;;;;;;;;;;;;;;5014987;28;19985;-58
2024/03/21 00:53:15;;;;;;;;;;;;;;;;;;5016989;28;19925;-58
2024/03/21 00:55:40;;;;;;;;;;;;;;;;;;5015460;28;20498;-58
2024/03/21 00:58:06;;;;;;;;;;;;;;;;;;5013597;28;19917;-56
2024/03/21 01:00:32;;;;;;;;;;;;;;;;;;5018059;28;19913;-57
2024/03/21 01:02:58;;;;;;;;;;;;;;;;;;5015150;28;19913;-57
2024/03/21 01:05:24;;;;;;;;;;;;;;;;;;5016950;28;20433;-58
2024/03/21 01:07:50;;;;;;;;;;;;;;;;;;5013429;28;19956;-58
2024/03/21 01:10:16;;;;;;;;;;;;;;;;;;5020743;28;20010;-58
2024/03/21 01:12:43;;;;;;;;;;;;;;;;;;5013976;28;19913;-58
2024/03/21 01:15:09;;;;;;;;;;;;;;;;;;5016509;28;20379;-56
2024/03/21 01:17:36;;;;;;;;;;;;;;;;;;5019303;28;19917;-58
2024/03/21 01:20:02;;;;;;;;;;;;;;;;;;5015851;28;20419;-58
2024/03/21 01:22:28;;;;;;;;;;;;;;;;;;5013962;28;19948;-58
2024/03/21 01:24:54;;;;;;;;;;;;;;;;;;5017232;28;20480;-59
2024/03/21 01:27:20;;;;;;;;;;;;;;;;;;5015053;28;19921;-59
2024/03/21 01:29:46;;;;;;;;;;;;;;;;;;5016592;28;19967;-58
2024/03/21 01:32:12;;;;;;;;;;;;;;;;;;5018746;28;19921;-57
2024/03/21 01:34:38;;;;;;;;;;;;;;;;;;5016250;28;20334;-58
2024/03/21 01:37:04;;;;;;;;;;;;;;;;;;5014226;28;19920;-56
2024/03/21 01:39:29;;;;;;;;;;;;;;;;;;5016787;28;19921;-58
2024/03/21 01:41:55;;;;;;;;;;;;;;;;;;5015477;28;19910;-58
2024/03/21 01:44:21;;;;;;;;;;;;;;;;;;5014246;28;19929;-58
2024/03/21 01:46:47;;;;;;;;;;;;;;;;;;5017865;28;19921;-58
2024/03/21 01:49:13;;;;;;;;;;;;;;;;;;5019408;28;19932;-59
2024/03/21 01:51:39;;;;;;;;;;;;;;;;;;5025157;28;19999;-57
2024/03/21 01:54:05;;;;;;;;;;;;;;;;;;5015254;28;19917;-59
2024/03/21 01:56:31;;;;;;;;;;;;;;;;;;5015978;28;19913;-59
2024/03/21 01:58:57;;;;;;;;;;;;;;;;;;5012711;28;19921;-54
2024/03/21 02:01:23;;;;;;;;;;;;;;;;;;5016320;28;20059;-55
2024/03/21 02:03:50;;;;;;;;;;;;;;;;;;5013333;28;19914;-58
2024/03/21 02:06:15;;;;;;;;;;;;;;;;;;5019144;28;19913;-59
2024/03/21 02:08:41;;;;;;;;;;;;;;;;;;5016797;28;19917;-59
2024/03/21 02:11:08;;;;;;;;;;;;;;;;;;5014600;28;20052;-57
2024/03/21 02:13:34;;;;;;;;;;;;;;;;;;5013789;28;20356;-60
2024/03/21 02:16:00;;;;;;;;;;;;;;;;;;5013686;28;20010;-56
2024/03/21 02:18:26;;;;;;;;;;;;;;;;;;5014275;28;19960;-59
2024/03/21 02:20:52;;;;;;;;;;;;;;;;;;5014228;28;20283;-56
2024/03/21 02:23:17;;;;;;;;;;;;;;;;;;5011295;28;19913;-58
2024/03/21 02:25:43;;;;;;;;;;;;;;;;;;5016337;28;20416;-58
2024/03/21 02:28:09;;;;;;;;;;;;;;;;;;5014620;28;20568;-59
2024/03/21 02:30:36;;;;;;;;;;;;;;;;;;5015568;28;19917;-59
2024/03/21 02:33:02;;;;;;;;;;;;;;;;;;5012405;28;20010;-57
2024/03/21 02:35:28;;;;;;;;;;;;;;;;;;5016671;28;19917;-58
2024/03/21 02:37:54;;;;;;;;;;;;;;;;;;5019187;28;20411;-57
2024/03/21 02:40:20;;;;;;;;;;;;;;;;;;5021845;28;19956;-58
2024/03/21 02:42:47;;;;;;;;;;;;;;;;;;5012624;28;19910;-58
2024/03/21 02:45:13;;;;;;;;;;;;;;;;;;5015007;28;19997;-59
2024/03/21 02:47:38;;;;;;;;;;;;;;;;;;5011612;28;20015;-57
2024/03/21 02:50:04;;;;;;;;;;;;;;;;;;5012098;28;19914;-56
2024/03/21 02:52:30;;;;;;;;;;;;;;;;;;5017283;28;20459;-56
2024/03/21 02:54:56;;;;;;;;;;;;;;;;;;5012985;28;19984;-57
2024/03/21 02:57:22;;;;;;;;;;;;;;;;;;5013014;28;19913;-54
2024/03/21 02:59:48;;;;;;;;;;;;;;;;;;5013275;28;19913;-57
2024/03/21 03:02:15;;;;;;;;;;;;;;;;;;5015265;28;20380;-55
2024/03/21 03:04:41;;;;;;;;;;;;;;;;;;5011571;28;19957;-59
2024/03/21 03:07:07;;;;;;;;;;;;;;;;;;5011368;28;19952;-59
2024/03/21 03:09:33;;;;;;;;;;;;;;;;;;5013878;28;19968;-59
2024/03/21 03:11:59;;;;;;;;;;;;;;;;;;5011303;28;19916;-56
2024/03/21 03:14:25;;;;;;;;;;;;;;;;;;5013570;28;20011;-57
2024/03/21 03:16:51;;;;;;;;;;;;;;;;;;5010849;28;19939;-58
2024/03/21 03:19:17;;;;;;;;;;;;;;;;;;5012276;28;21971;-58
2024/03/21 03:21:42;;;;;;;;;;;;;;;;;;5016505;28;19921;-59
2024/03/21 03:24:08;;;;;;;;;;;;;;;;;;5012409;28;20000;-58
2024/03/21 03:26:34;;;;;;;;;;;;;;;;;;5012197;28;20334;-58
2024/03/21 03:29:00;;;;;;;;;;;;;;;;;;5014712;28;19917;-59
2024/03/21 03:31:26;;;;;;;;;;;;;;;;;;5016744;28;20396;-57
2024/03/21 03:36:37;;;;;;;;;;;;;;;;;;5010499;28;20302;-56
2024/03/21 03:39:03;;;;;;;;;;;;;;;;;;5010322;28;19996;-58
2024/03/21 03:41:29;;;;;;;;;;;;;;;;;;5011525;28;19913;-58
2024/03/21 03:43:54;;;;;;;;;;;;;;;;;;5015118;28;19924;-58
2024/03/21 03:46:20;;;;;;;;;;;;;;;;;;5015144;28;20352;-57
2024/03/21 03:48:46;;;;;;;;;;;;;;;;;;5011543;28;19917;-59
2024/03/21 03:51:12;;;;;;;;;;;;;;;;;;5013115;28;19913;-58
2024/03/21 03:53:38;;;;;;;;;;;;;;;;;;5010630;28;19928;-59
2024/03/21 03:56:04;;;;;;;;;;;;;;;;;;5011024;28;20363;-58
2024/03/21 03:58:30;;;;;;;;;;;;;;;;;;5015496;28;19917;-58
2024/03/21 04:00:56;;;;;;;;;;;;;;;;;;5014732;28;19940;-59
2024/03/21 04:03:21;;;;;;;;;;;;;;;;;;5010460;28;19913;-58
2024/03/21 04:05:47;;;;;;;;;;;;;;;;;;5010935;28;19917;-59
2024/03/21 04:08:13;;;;;;;;;;;;;;;;;;5011838;28;19925;-59
2024/03/21 04:10:39;;;;;;;;;;;;;;;;;;5013325;28;19913;-58
2024/03/21 04:13:06;;;;;;;;;;;;;;;;;;5012375;28;20064;-59
2024/03/21 04:15:32;;;;;;;;;;;;;;;;;;5012113;28;20043;-57
2024/03/21 04:17:58;;;;;;;;;;;;;;;;;;5014464;28;19917;-58
2024/03/21 04:20:23;;;;;;;;;;;;;;;;;;5010957;28;20898;-58
2024/03/21 04:22:49;;;;;;;;;;;;;;;;;;5011771;28;19921;-56
2024/03/21 04:25:15;;;;;;;;;;;;;;;;;;5018373;28;19928;-56
2024/03/21 04:27:41;;;;;;;;;;;;;;;;;;5010594;28;19917;-56
2024/03/21 04:30:07;;;;;;;;;;;;;;;;;;5019375;28;20000;-56
2024/03/21 04:32:33;;;;;;;;;;;;;;;;;;5014591;28;20454;-56
2024/03/21 04:34:59;;;;;;;;;;;;;;;;;;5017691;28;19920;-56
2024/03/21 04:37:25;;;;;;;;;;;;;;;;;;5015173;28;20036;-56
2024/03/21 04:39:51;;;;;;;;;;;;;;;;;;5014297;28;19910;-59
2024/03/21 04:42:16;;;;;;;;;;;;;;;;;;5015290;28;20361;-59
2024/03/21 04:44:43;;;;;;;;;;;;;;;;;;5016497;28;19914;-58
2024/03/21 04:47:08;;;;;;;;;;;;;;;;;;5015279;28;20287;-58
2024/03/21 04:49:35;;;;;;;;;;;;;;;;;;5014497;28;19925;-58
2024/03/21 04:52:00;;;;;;;;;;;;;;;;;;5016215;28;20368;-59
2024/03/21 04:54:26;;;;;;;;;;;;;;;;;;5013059;28;19914;-59
2024/03/21 04:56:52;;;;;;;;;;;;;;;;;;5014924;28;20363;-59
2024/03/21 04:59:20;;;;;;;;;;;;;;;;;;5014656;28;20008;-59
2024/03/21 05:01:46;;;;;;;;;;;;;;;;;;5016550;28;19921;-59
2024/03/21 05:04:11;;;;;;;;;;;;;;;;;;5016443;28;19913;-59
2024/03/21 05:06:37;;;;;;;;;;;;;;;;;;5015779;28;20398;-58
2024/03/21 05:09:03;;;;;;;;;;;;;;;;;;5013648;28;20020;-58
2024/03/21 05:11:29;;;;;;;;;;;;;;;;;;5018778;28;19913;-56
2024/03/21 05:13:55;;;;;;;;;;;;;;;;;;5013629;28;19917;-58
2024/03/21 05:16:21;;;;;;;;;;;;;;;;;;5016459;28;19914;-57
2024/03/21 05:18:48;;;;;;;;;;;;;;;;;;5014064;28;19913;-58
2024/03/21 05:21:14;;;;;;;;;;;;;;;;;;5016922;28;19971;-60
2024/03/21 05:23:40;;;;;;;;;;;;;;;;;;5013636;28;19975;-58
2024/03/21 05:26:06;;;;;;;;;;;;;;;;;;5018279;28;19925;-59
2024/03/21 05:28:32;;;;;;;;;;;;;;;;;;5014374;28;19923;-59
2024/03/21 05:30:57;;;;;;;;;;;;;;;;;;5014928;28;19913;-58
2024/03/21 05:33:23;;;;;;;;;;;;;;;;;;5016188;28;19913;-59
2024/03/21 05:35:49;;;;;;;;;;;;;;;;;;5009743;28;19932;-57
2024/03/21 05:38:15;;;;;;;;;;;;;;;;;;5014340;28;19917;-56
2024/03/21 05:40:43;;;;;;;;;;;;;;;;;;5010792;28;21269;-56
2024/03/21 05:43:09;;;;;;;;;;;;;;;;;;5013822;28;20005;-58
2024/03/21 05:45:35;;;;;;;;;;;;;;;;;;5014539;28;19917;-56
2024/03/21 05:48:01;;;;;;;;;;;;;;;;;;5012588;28;19922;-56
2024/03/21 05:50:27;;;;;;;;;;;;;;;;;;5015032;28;20264;-62
2024/03/21 05:52:52;;;;;;;;;;;;;;;;;;5014419;28;19971;-60
2024/03/21 05:55:18;;;;;;;;;;;;;;;;;;5012071;28;19920;-62
2024/03/21 05:57:44;;;;;;;;;;;;;;;;;;5013207;28;19913;-62
2024/03/21 06:00:12;;;;;;;;;;;;;;;;;;5011743;28;19972;-62
2024/03/21 06:02:38;;;;;;;;;;;;;;;;;;5012692;28;20531;-60
2024/03/21 06:05:04;;;;;;;;;;;;;;;;;;5014102;28;19921;-62
2024/03/21 06:07:30;;;;;;;;;;;;;;;;;;5011982;28;19921;-61
2024/03/21 06:09:56;;;;;;;;;;;;;;;;;;5012404;28;19917;-63
2024/03/21 06:12:22;;;;;;;;;;;;;;;;;;5015421;28;19914;-61
2024/03/21 06:14:47;;;;;;;;;;;;;;;;;;5013438;28;19914;-62
2024/03/21 06:17:14;;;;;;;;;;;;;;;;;;5013217;28;19974;-63
2024/03/21 06:19:39;;;;;;;;;;;;;;;;;;5012342;28;19921;-62
2024/03/21 06:22:05;;;;;;;;;;;;;;;;;;5012979;28;19921;-61
2024/03/21 06:24:31;;;;;;;;;;;;;;;;;;5011757;28;19913;-62
2024/03/21 06:26:57;;;;;;;;;;;;;;;;;;5012298;28;19920;-63
2024/03/21 06:29:27;;;;;;;;;;;;;;;;;;5011788;28;20404;-63
2024/03/21 06:31:53;;;;;;;;;;;;;;;;;;5010864;28;20402;-62
2024/03/21 06:34:19;;;;;;;;;;;;;;;;;;5009760;28;19925;-62
2024/03/21 06:36:44;;;;;;;;;;;;;;;;;;5012696;28;20606;-62
2024/03/21 06:39:13;;;;;;;;;;;;;;;;;;5012517;28;19914;-62
2024/03/21 06:41:39;;;;;;;;;;;;;;;;;;5011156;28;19930;-62
2024/03/21 06:44:05;;;;;;;;;;;;;;;;;;5009971;28;19992;-61
2024/03/21 06:46:31;;;;;;;;;;;;;;;;;;5013511;28;19914;-62
2024/03/21 06:48:57;;;;;;;;;;;;;;;;;;5016926;28;19917;-62
2024/03/21 06:51:23;;;;;;;;;;;;;;;;;;5013275;28;19956;-63
2024/03/21 06:53:49;;;;;;;;;;;;;;;;;;5014352;28;19909;-61
2024/03/21 06:56:14;;;;;;;;;;;;;;;;;;5013509;28;19992;-62
2024/03/21 06:58:40;;;;;;;;;;;;;;;;;;5016760;28;19913;-62
2024/03/21 07:01:06;;;;;;;;;;;;;;;;;;5010963;28;19926;-63
2024/03/21 07:03:32;;;;;;;;;;;;;;;;;;5010773;28;20005;-62
2024/03/21 07:05:58;;;;;;;;;;;;;;;;;;5010098;28;20552;-62
2024/03/21 07:08:24;;;;;;;;;;;;;;;;;;5010718;28;19970;-63
2024/03/21 07:10:50;;;;;;;;;;;;;;;;;;5010419;28;19921;-62
2024/03/21 07:13:15;;;;;;;;;;;;;;;;;;5011023;28;19917;-63
2024/03/21 07:15:42;;;;;;;;;;;;;;;;;;5010709;28;19965;-61
2024/03/21 07:18:08;;;;;;;;;;;;;;;;;;5012103;28;19914;-63
2024/03/21 07:20:34;;;;;;;;;;;;;;;;;;5010237;28;19913;-62
2024/03/21 07:22:59;;;;;;;;;;;;;;;;;;5025919;28;19914;-61
2024/03/21 07:25:25;;;;;;;;;;;;;;;;;;5010159;28;19917;-63
2024/03/21 07:27:51;;;;;;;;;;;;;;;;;;5009664;28;19980;-63
2024/03/21 07:30:19;;;;;;;;;;;;;;;;;;5009208;28;19921;-63
2024/03/21 07:32:45;;;;;;;;;;;;;;;;;;5013176;28;19921;-63
2024/03/21 07:35:11;;;;;;;;;;;;;;;;;;5010376;28;19918;-62
2024/03/21 07:37:37;;;;;;;;;;;;;;;;;;5009726;28;20430;-63
2024/03/21 07:40:05;;;;;;;;;;;;;;;;;;5010304;28;20000;-62
2024/03/21 07:42:31;;;;;;;;;;;;;;;;;;5023762;28;20360;-63
2024/03/21 07:44:57;;;;;;;;;;;;;;;;;;5026691;28;19969;-62
2024/03/21 07:47:23;;;;;;;;;;;;;;;;;;5019895;28;19918;-63
2024/03/21 07:49:49;;;;;;;;;;;;;;;;;;5010575;28;19917;-60
2024/03/21 07:52:15;;;;;;;;;;;;;;;;;;5009689;28;19918;-61
2024/03/21 07:54:41;;;;;;;;;;;;;;;;;;5013270;28;19920;-63
2024/03/21 07:57:06;;;;;;;;;;;;;;;;;;5012808;28;20004;-63
2024/03/21 07:59:32;;;;;;;;;;;;;;;;;;5012048;28;19917;-63
2024/03/21 08:01:58;;;;;;;;;;;;;;;;;;5010150;28;19913;-62
2024/03/21 08:04:24;;;;;;;;;;;;;;;;;;5010680;28;19976;-62
2024/03/21 08:06:50;;;;;;;;;;;;;;;;;;5010659;28;20372;-63
2024/03/21 08:09:16;;;;;;;;;;;;;;;;;;5011969;28;19981;-62
2024/03/21 08:11:43;;;;;;;;;;;;;;;;;;5012398;28;19918;-63
2024/03/21 08:14:09;;;;;;;;;;;;;;;;;;5011464;28;20403;-63
2024/03/21 08:16:35;;;;;;;;;;;;;;;;;;5010647;28;19913;-62
2024/03/21 08:19:00;;;;;;;;;;;;;;;;;;5009206;28;20376;-62
2024/03/21 08:21:26;;;;;;;;;;;;;;;;;;5010167;28;19913;-63
2024/03/21 08:23:52;;;;;;;;;;;;;;;;;;5009579;28;19921;-62
2024/03/21 08:26:19;;;;;;;;;;;;;;;;;;5010972;28;19914;-61
2024/03/21 08:28:45;;;;;;;;;;;;;;;;;;5012029;28;20301;-60
2024/03/21 08:31:11;;;;;;;;;;;;;;;;;;5010627;28;19921;-61
2024/03/21 08:33:36;;;;;;;;;;;;;;;;;;5010206;28;19914;-62
2024/03/21 08:36:02;;;;;;;;;;;;;;;;;;5009750;28;20001;-62
2024/03/21 08:38:30;;;;;;;;;;;;;;;;;;5009610;28;19987;-63
2024/03/21 08:40:56;;;;;;;;;;;;;;;;;;5009490;28;19960;-63
2024/03/21 08:43:24;;;;;;;;;;;;;;;;;;5011521;28;20380;-63
2024/03/21 08:45:50;;;;;;;;;;;;;;;;;;5012846;28;19917;-63
2024/03/21 08:48:16;;;;;;;;;;;;;;;;;;5011086;28;19921;-62
2024/03/21 08:50:44;;;;;;;;;;;;;;;;;;5010379;28;20005;-62
2024/03/21 08:53:10;;;;;;;;;;;;;;;;;;5012877;28;19956;-61
2024/03/21 08:55:35;;;;;;;;;;;;;;;;;;5013763;28;20306;-62
2024/03/21 08:58:01;;;;;;;;;;;;;;;;;;5010152;28;19910;-62
2024/03/21 09:00:27;;;;;;;;;;;;;;;;;;5009642;28;19924;-63
2024/03/21 09:02:53;;;;;;;;;;;;;;;;;;5009626;28;19917;-62
2024/03/21 09:05:19;;;;;;;;;;;;;;;;;;5011553;28;20000;-61
2024/03/21 09:07:45;;;;;;;;;;;;;;;;;;5011292;28;20410;-62
2024/03/21 09:10:11;;;;;;;;;;;;;;;;;;5010187;28;20071;-61
2024/03/21 09:12:37;;;;;;;;;;;;;;;;;;5010337;28;19921;-62
2024/03/21 09:15:04;;;;;;;;;;;;;;;;;;5011109;28;19996;-61
2024/03/21 09:17:30;;;;;;;;;;;;;;;;;;5015187;28;20303;-62
2024/03/21 09:19:56;;;;;;;;;;;;;;;;;;5012576;28;19959;-64
2024/03/21 09:22:22;;;;;;;;;;;;;;;;;;5015095;28;20306;-61
2024/03/21 09:24:47;;;;;;;;;;;;;;;;;;5015091;28;19920;-62
2024/03/21 09:27:13;;;;;;;;;;;;;;;;;;5015087;28;19914;-62
2024/03/21 09:29:39;;;;;;;;;;;;;;;;;;5015596;28;19924;-62
2024/03/21 09:32:05;;;;;;;;;;;;;;;;;;5015271;28;19918;-62
2024/03/21 09:34:31;;;;;;;;;;;;;;;;;;5013312;28;19952;-61
2024/03/21 09:36:57;;;;;;;;;;;;;;;;;;5015314;28;19917;-62
2024/03/21 09:39:23;;;;;;;;;;;;;;;;;;5014747;28;20244;-62
2024/03/21 09:41:48;;;;;;;;;;;;;;;;;;5014114;28;19933;-62
2024/03/21 09:44:14;;;;;;;;;;;;;;;;;;5013765;28;20113;-62
2024/03/21 09:46:40;;;;;;;;;;;;;;;;;;5013472;28;19924;-60
2024/03/21 09:49:06;;;;;;;;;;;;;;;;;;5014019;28;19972;-61
2024/03/21 09:51:32;;;;;;;;;;;;;;;;;;5014408;28;19914;-62
2024/03/21 09:53:58;;;;;;;;;;;;;;;;;;5012521;28;20441;-61
2024/03/21 09:56:24;;;;;;;;;;;;;;;;;;5012527;28;20416;-60
2024/03/21 09:58:50;;;;;;;;;;;;;;;;;;5014882;28;19917;-62
2024/03/21 10:01:15;;;;;;;;;;;;;;;;;;5028619;28;19917;-61
2024/03/21 10:03:41;;;;;;;;;;;;;;;;;;5028757;28;19919;-62
2024/03/21 10:06:08;;;;;;;;;;;;;;;;;;5008728;28;19917;-63
2024/03/21 10:08:34;;;;;;;;;;;;;;;;;;5012967;28;20430;-62
2024/03/21 10:11:00;;;;;;;;;;;;;;;;;;5017118;28;19920;-63
2024/03/21 10:13:26;;;;;;;;;;;;;;;;;;5017740;28;19917;-62
2024/03/21 10:15:52;;;;;;;;;;;;;;;;;;5012181;28;20411;-62
2024/03/21 10:18:18;;;;;;;;;;;;;;;;;;5015716;28;19932;-62
2024/03/21 10:20:44;;;;;;;;;;;;;;;;;;5012075;28;19917;-62
2024/03/21 10:23:09;;;;;;;;;;;;;;;;;;5014444;28;19956;-62
2024/03/21 10:25:35;;;;;;;;;;;;;;;;;;5014991;28;19917;-62
2024/03/21 10:28:01;;;;;;;;;;;;;;;;;;5013858;28;19918;-62
2024/03/21 10:30:27;;;;;;;;;;;;;;;;;;5017506;28;19924;-62
2024/03/21 10:32:53;;;;;;;;;;;;;;;;;;5016267;28;19917;-61
2024/03/21 10:35:22;;;;;;;;;;;;;;;;;;5015747;28;19924;-61
2024/03/21 10:37:48;;;;;;;;;;;;;;;;;;5016416;28;19966;-61
2024/03/21 10:40:14;;;;;;;;;;;;;;;;;;5012940;28;19921;-61
2024/03/21 10:42:40;;;;;;;;;;;;;;;;;;5014401;28;19949;-62
2024/03/21 10:45:06;;;;;;;;;;;;;;;;;;5011478;28;19952;-63
2024/03/21 10:47:32;;;;;;;;;;;;;;;;;;5013392;28;20367;-62
2024/03/21 10:49:58;;;;;;;;;;;;;;;;;;5012702;28;19918;-61
2024/03/21 10:52:24;;;;;;;;;;;;;;;;;;5011861;28;19913;-62
2024/03/21 10:54:50;;;;;;;;;;;;;;;;;;5012494;28;19924;-63
2024/03/21 10:57:16;;;;;;;;;;;;;;;;;;5018124;28;20357;-63
2024/03/21 10:59:43;;;;;;;;;;;;;;;;;;5012300;28;19959;-63
2024/03/21 11:02:09;;;;;;;;;;;;;;;;;;5012294;28;19914;-63
2024/03/21 11:04:34;;;;;;;;;;;;;;;;;;5011631;28;19913;-61
2024/03/21 11:07:00;;;;;;;;;;;;;;;;;;5011928;28;19960;-60
2024/03/21 11:09:26;;;;;;;;;;;;;;;;;;5011720;28;20303;-63
2024/03/21 11:11:52;;;;;;;;;;;;;;;;;;5017758;28;19920;-63
2024/03/21 11:14:18;;;;;;;;;;;;;;;;;;5012958;28;19913;-63
2024/03/21 11:16:44;;;;;;;;;;;;;;;;;;5010688;28;20347;-63
2024/03/21 11:19:10;;;;;;;;;;;;;;;;;;5011711;28;19989;-62
2024/03/21 11:21:40;;;;;;;;;;;;;;;;;;5011754;28;20044;-60
2024/03/21 11:24:06;;;;;;;;;;;;;;;;;;5011819;28;19918;-62
2024/03/21 11:26:32;;;;;;;;;;;;;;;;;;5015964;28;19921;-62
2024/03/21 11:28:58;;;;;;;;;;;;;;;;;;5010426;28;19917;-62
2024/03/21 11:31:24;;;;;;;;;;;;;;;;;;5010448;28;20008;-63
2024/03/21 11:33:49;;;;;;;;;;;;;;;;;;5011490;28;19924;-62
2024/03/21 11:36:15;;;;;;;;;;;;;;;;;;5007345;28;19921;-63
2024/03/21 11:38:41;;;;;;;;;;;;;;;;;;5008565;28;19921;-62
2024/03/21 11:41:07;;;;;;;;;;;;;;;;;;5011743;28;19913;-63
2024/03/21 11:43:33;;;;;;;;;;;;;;;;;;5011383;28;19921;-62
2024/03/21 11:45:59;;;;;;;;;;;;;;;;;;5011537;28;20658;-62
2024/03/21 11:48:26;;;;;;;;;;;;;;;;;;5010519;28;19921;-61
2024/03/21 11:50:52;;;;;;;;;;;;;;;;;;5009928;28;19921;-63
2024/03/21 11:53:18;;;;;;;;;;;;;;;;;;5011905;28;19914;-63
2024/03/21 11:55:44;;;;;;;;;;;;;;;;;;5011187;28;20391;-62
2024/03/21 11:58:10;;;;;;;;;;;;;;;;;;5011721;28;19913;-61
2024/03/21 12:00:36;;;;;;;;;;;;;;;;;;5010343;28;19917;-60
2024/03/21 12:03:02;;;;;;;;;;;;;;;;;;5011572;28;20296;-62
2024/03/21 12:05:28;;;;;;;;;;;;;;;;;;5011790;28;19914;-62
2024/03/21 12:07:53;;;;;;;;;;;;;;;;;;5017053;28;20398;-62
2024/03/21 12:10:19;;;;;;;;;;;;;;;;;;5011678;28;19940;-61
2024/03/21 12:12:45;;;;;;;;;;;;;;;;;;5010464;28;19929;-62
2024/03/21 12:15:13;;;;;;;;;;;;;;;;;;5016142;28;20643;-63
2024/03/21 12:17:39;;;;;;;;;;;;;;;;;;5024280;28;19924;-62
2024/03/21 12:20:05;;;;;;;;;;;;;;;;;;5020555;28;19914;-62
2024/03/21 12:22:31;;;;;;;;;;;;;;;;;;5013528;28;19914;-62
2024/03/21 12:24:57;;;;;;;;;;;;;;;;;;5010144;28;20273;-62
2024/03/21 12:27:23;;;;;;;;;;;;;;;;;;5011688;28;19924;-62
2024/03/21 12:29:48;;;;;;;;;;;;;;;;;;5010900;28;19917;-62
2024/03/21 12:32:14;;;;;;;;;;;;;;;;;;5011286;28;19913;-63
2024/03/21 12:34:41;;;;;;;;;;;;;;;;;;5010723;28;20502;-62
2024/03/21 12:37:08;;;;;;;;;;;;;;;;;;5011329;28;19971;-62
2024/03/21 12:39:35;;;;;;;;;;;;;;;;;;5004035;28;19910;-62
2024/03/21 12:42:02;;;;;;;;;;;;;;;;;;5009890;28;20361;-62
2024/03/21 12:44:28;;;;;;;;;;;;;;;;;;5010499;28;19909;-63
2024/03/21 12:46:54;;;;;;;;;;;;;;;;;;5006537;28;20025;-61
2024/03/21 12:49:20;;;;;;;;;;;;;;;;;;5004817;28;19928;-62
2024/03/21 12:51:45;;;;;;;;;;;;;;;;;;5010263;28;19920;-62
2024/03/21 12:54:12;;;;;;;;;;;;;;;;;;5012363;28;20326;-62
2024/03/21 12:56:37;;;;;;;;;;;;;;;;;;5013916;28;20307;-62
2024/03/21 12:59:03;;;;;;;;;;;;;;;;;;5012905;28;19921;-61
2024/03/21 13:01:29;;;;;;;;;;;;;;;;;;5013826;28;20296;-61
2024/03/21 13:03:55;;;;;;;;;;;;;;;;;;5012775;28;20201;-62
2024/03/21 13:06:21;;;;;;;;;;;;;;;;;;5013101;28;19917;-62
2024/03/21 13:08:47;;;;;;;;;;;;;;;;;;5012495;28;21036;-61
2024/03/21 13:11:13;;;;;;;;;;;;;;;;;;5015080;28;19913;-62
2024/03/21 13:13:40;;;;;;;;;;;;;;;;;;5011663;28;20295;-61
2024/03/21 13:16:06;;;;;;;;;;;;;;;;;;5013976;28;20106;-62
2024/03/21 13:18:32;;;;;;;;;;;;;;;;;;5013975;28;20407;-62
2024/03/21 13:20:58;;;;;;;;;;;;;;;;;;5011455;28;19922;-62
2024/03/21 13:23:24;;;;;;;;;;;;;;;;;;5012721;28;20042;-61
2024/03/21 13:25:50;;;;;;;;;;;;;;;;;;5010549;28;19917;-61
2024/03/21 13:28:16;;;;;;;;;;;;;;;;;;5012780;28;20047;-61
2024/03/21 13:30:44;;;;;;;;;;;;;;;;;;5011705;28;19914;-61
2024/03/21 13:33:09;;;;;;;;;;;;;;;;;;5010631;28;19921;-62
2024/03/21 13:35:35;;;;;;;;;;;;;;;;;;5011043;28;20334;-63
2024/03/21 13:38:02;;;;;;;;;;;;;;;;;;5011180;28;19953;-62
2024/03/21 13:40:31;;;;;;;;;;;;;;;;;;5009710;28;20328;-62
2024/03/21 13:42:57;;;;;;;;;;;;;;;;;;5012258;28;19913;-61
2024/03/21 13:45:22;;;;;;;;;;;;;;;;;;5011440;28;19921;-62
2024/03/21 13:47:48;;;;;;;;;;;;;;;;;;5012429;28;20008;-60
2024/03/21 13:50:14;;;;;;;;;;;;;;;;;;5012745;28;19910;-62
2024/03/21 13:52:41;;;;;;;;;;;;;;;;;;5011959;28;20004;-61
2024/03/21 13:55:08;;;;;;;;;;;;;;;;;;5012222;28;19921;-62
2024/03/21 13:57:37;;;;;;;;;;;;;;;;;;5015135;28;20304;-62
2024/03/21 14:00:03;;;;;;;;;;;;;;;;;;5014162;28;20402;-60
2024/03/21 14:02:33;;;;;;;;;;;;;;;;;;5012152;28;19913;-61
2024/03/21 14:04:59;;;;;;;;;;;;;;;;;;5010042;28;19920;-60
2024/03/21 14:07:25;;;;;;;;;;;;;;;;;;5012170;28;19964;-61
2024/03/21 14:09:51;;;;;;;;;;;;;;;;;;5013227;28;20352;-60
2024/03/21 14:12:17;;;;;;;;;;;;;;;;;;5016141;28;19913;-61
2024/03/21 14:14:43;;;;;;;;;;;;;;;;;;5011189;28;19909;-61
2024/03/21 14:17:09;;;;;;;;;;;;;;;;;;5012543;28;20025;-62
2024/03/21 14:19:35;;;;;;;;;;;;;;;;;;5012399;28;19917;-61
2024/03/21 14:22:01;;;;;;;;;;;;;;;;;;5012125;28;19921;-61
2024/03/21 14:24:27;;;;;;;;;;;;;;;;;;5017150;28;20008;-60
2024/03/21 14:26:53;;;;;;;;;;;;;;;;;;5011011;28;20008;-61
2024/03/21 14:29:19;;;;;;;;;;;;;;;;;;5016306;28;19925;-62
2024/03/21 14:31:45;;;;;;;;;;;;;;;;;;5015724;28;20423;-61
2024/03/21 14:34:13;;;;;;;;;;;;;;;;;;5021071;28;19944;-62
2024/03/21 14:36:41;;;;;;;;;;;;;;;;;;5028290;28;19918;-62
2024/03/21 14:39:07;;;;;;;;;;;;;;;;;;5017708;28;19928;-62
2024/03/21 14:41:33;;;;;;;;;;;;;;;;;;5015947;28;19918;-62
2024/03/21 14:43:59;;;;;;;;;;;;;;;;;;5015154;28;19920;-62
2024/03/21 14:46:25;;;;;;;;;;;;;;;;;;5018278;28;20000;-62
2024/03/21 14:48:53;;;;;;;;;;;;;;;;;;5015398;28;19925;-62
2024/03/21 14:51:19;;;;;;;;;;;;;;;;;;5015856;28;19917;-62
2024/03/21 14:53:44;;;;;;;;;;;;;;;;;;5016181;28;19920;-62
2024/03/21 14:56:12;;;;;;;;;;;;;;;;;;5019178;28;19956;-61
2024/03/21 14:58:39;;;;;;;;;;;;;;;;;;5014699;28;19914;-61
2024/03/21 15:01:04;;;;;;;;;;;;;;;;;;5014082;28;20438;-61
2024/03/21 15:03:30;;;;;;;;;;;;;;;;;;5016232;28;20015;-60
2024/03/21 15:05:56;;;;;;;;;;;;;;;;;;5022729;28;20379;-61
2024/03/21 15:08:22;;;;;;;;;;;;;;;;;;5011390;28;19924;-60
2024/03/21 15:10:48;;;;;;;;;;;;;;;;;;5018211;28;20372;-62
2024/03/21 15:13:14;;;;;;;;;;;;;;;;;;5012277;28;19932;-62
2024/03/21 15:15:40;;;;;;;;;;;;;;;;;;5021292;28;19913;-62
2024/03/21 15:18:05;;;;;;;;;;;;;;;;;;5015310;28;19917;-60
2024/03/21 15:20:31;;;;;;;;;;;;;;;;;;5014145;28;19941;-62
2024/03/21 15:22:57;;;;;;;;;;;;;;;;;;5014927;28;19991;-61
2024/03/21 15:25:23;;;;;;;;;;;;;;;;;;5012043;28;20300;-62
2024/03/21 15:27:49;;;;;;;;;;;;;;;;;;5013104;28;19913;-60
2024/03/21 15:30:16;;;;;;;;;;;;;;;;;;5019497;28;19918;-60
2024/03/21 15:32:46;;;;;;;;;;;;;;;;;;5015847;28;19917;-61
2024/03/21 15:35:12;;;;;;;;;;;;;;;;;;5016182;28;19921;-62
2024/03/21 15:37:37;;;;;;;;;;;;;;;;;;5014099;28;20345;-63
2024/03/21 15:40:03;;;;;;;;;;;;;;;;;;5018738;28;19931;-61
2024/03/21 15:42:29;;;;;;;;;;;;;;;;;;5017215;28;20327;-60
2024/03/21 15:44:55;;;;;;;;;;;;;;;;;;5016035;28;20008;-62
2024/03/21 15:47:21;;;;;;;;;;;;;;;;;;5014145;28;19913;-59
2024/03/21 15:49:47;;;;;;;;;;;;;;;;;;5014564;28;20316;-62
2024/03/21 15:52:13;;;;;;;;;;;;;;;;;;5018225;28;19920;-61
2024/03/21 15:54:38;;;;;;;;;;;;;;;;;;5014522;28;19909;-62
2024/03/21 15:57:05;;;;;;;;;;;;;;;;;;5015016;28;19945;-61
2024/03/21 15:59:31;;;;;;;;;;;;;;;;;;5012623;28;20336;-61
2024/03/21 16:01:56;;;;;;;;;;;;;;;;;;5013753;28;20028;-61
2024/03/21 16:04:22;;;;;;;;;;;;;;;;;;5011804;28;20331;-62
2024/03/21 16:06:48;;;;;;;;;;;;;;;;;;5008318;28;19996;-62
2024/03/21 16:09:14;;;;;;;;;;;;;;;;;;5009124;28;19924;-61
2024/03/21 16:11:40;;;;;;;;;;;;;;;;;;5013512;28;20253;-62
2024/03/21 16:14:06;;;;;;;;;;;;;;;;;;5010064;28;19921;-62
2024/03/21 16:16:32;;;;;;;;;;;;;;;;;;5010070;28;19917;-62
2024/03/21 16:18:58;;;;;;;;;;;;;;;;;;5013021;28;19967;-62
2024/03/21 16:21:24;;;;;;;;;;;;;;;;;;5009270;28;19928;-62
2024/03/21 16:23:49;;;;;;;;;;;;;;;;;;5012495;28;20004;-62
2024/03/21 16:26:15;;;;;;;;;;;;;;;;;;5016948;28;19914;-62
2024/03/21 16:28:41;;;;;;;;;;;;;;;;;;5012527;28;20367;-62
2024/03/21 16:31:07;;;;;;;;;;;;;;;;;;5014257;28;19928;-60
2024/03/21 16:33:33;;;;;;;;;;;;;;;;;;5016940;28;19979;-61
2024/03/21 16:35:59;;;;;;;;;;;;;;;;;;5015585;28;19924;-60
2024/03/21 16:38:25;;;;;;;;;;;;;;;;;;5009516;28;19921;-62
2024/03/21 16:40:51;;;;;;;;;;;;;;;;;;5014206;28;20281;-62